createdAt,value
2023-05-25T00:01:24.803Z,19.60
2023-05-25T00:03:53.126Z,17.98
2023-05-25T00:06:20.466Z,20.98
2023-05-25T00:08:48.805Z,23.27
2023-05-25T00:11:19.630Z,20.80
2023-05-25T00:13:46.757Z,21.30
2023-05-25T00:16:13.875Z,20.15
2023-05-25T00:18:41.066Z,19.92
2023-05-25T00:21:08.167Z,21.05
2023-05-25T00:23:35.283Z,19.77
2023-05-25T00:26:04.288Z,22.77
2023-05-25T00:28:31.457Z,20.63
2023-05-25T00:30:58.629Z,23.67
2023-05-25T00:33:25.691Z,24.02
2023-05-25T00:35:54.373Z,23.42
2023-05-25T00:38:22.070Z,27.58
2023-05-25T00:40:49.275Z,29.20
2023-05-25T00:43:17.081Z,27.17
2023-05-25T00:45:44.558Z,28.00
2023-05-25T00:48:12.376Z,29.50
2023-05-25T00:50:45.875Z,28.48
2023-05-25T00:53:14.120Z,27.48
2023-05-25T00:56:14.107Z,31.98
2023-05-25T00:58:43.083Z,33.30
2023-05-25T01:01:15.496Z,28.90
2023-05-25T01:03:45.933Z,28.88
2023-05-25T01:06:16.119Z,26.45
2023-05-25T01:08:47.608Z,27.17
2023-05-25T01:11:17.254Z,31.02
2023-05-25T01:13:45.715Z,25.13
2023-05-25T01:16:13.387Z,24.48
2023-05-25T01:18:42.128Z,22.98
2023-05-25T01:21:18.246Z,23.63
2023-05-25T01:23:54.936Z,22.85
2023-05-25T01:26:26.824Z,23.42
2023-05-25T01:28:56.134Z,22.20
2023-05-25T01:31:24.144Z,23.17
2023-05-25T01:33:53.514Z,22.00
2023-05-25T01:36:21.215Z,24.15
2023-05-25T01:38:49.301Z,23.33
2023-05-25T01:41:16.425Z,22.10
2023-05-25T01:43:43.863Z,21.90
2023-05-25T01:46:38.399Z,21.48
2023-05-25T01:49:22.156Z,19.65
2023-05-25T01:52:20.223Z,19.75
2023-05-25T01:55:07.517Z,24.17
2023-05-25T01:57:37.752Z,24.50
2023-05-25T02:00:05.930Z,22.40
2023-05-25T02:02:34.775Z,21.98
2023-05-25T02:05:02.439Z,24.00
2023-05-25T02:07:29.555Z,24.88
2023-05-25T02:09:56.690Z,26.88
2023-05-25T02:12:24.361Z,26.75
2023-05-25T02:14:51.553Z,27.00
2023-05-25T02:17:18.734Z,25.33
2023-05-25T02:19:48.782Z,25.77
2023-05-25T02:22:17.313Z,23.83
2023-05-25T02:24:44.449Z,27.75
2023-05-25T02:27:13.011Z,27.33
2023-05-25T02:29:40.776Z,22.60
2023-05-25T02:32:07.869Z,26.83
2023-05-25T02:34:35.014Z,23.58
2023-05-25T02:37:02.336Z,27.27
2023-05-25T02:39:29.567Z,28.88
2023-05-25T02:41:56.670Z,25.50
2023-05-25T02:44:23.801Z,24.23
2023-05-25T02:46:50.964Z,24.27
2023-05-25T02:49:18.088Z,27.13
2023-05-25T02:51:45.170Z,23.10
2023-05-25T02:54:12.352Z,23.92
2023-05-25T02:56:39.499Z,22.33
2023-05-25T02:59:07.880Z,21.80
2023-05-25T03:01:35.867Z,22.73
2023-05-25T03:04:03.235Z,20.90
2023-05-25T03:06:30.511Z,21.17
2023-05-25T03:08:57.674Z,19.35
2023-05-25T03:11:24.948Z,19.45
2023-05-25T03:13:52.501Z,16.92
2023-05-25T03:16:19.671Z,17.52
2023-05-25T03:18:46.832Z,17.67
2023-05-25T03:21:13.948Z,16.13
2023-05-25T03:23:41.052Z,18.88
2023-05-25T03:26:08.211Z,14.85
2023-05-25T03:28:35.308Z,19.75
2023-05-25T03:31:02.440Z,18.25
2023-05-25T03:33:29.520Z,17.48
2023-05-25T03:35:56.791Z,23.77
2023-05-25T03:38:23.862Z,18.00
2023-05-25T03:40:50.969Z,15.13
2023-05-25T03:43:18.582Z,17.95
2023-05-25T03:45:46.323Z,15.27
2023-05-25T03:48:13.771Z,17.83
2023-05-25T03:50:41.086Z,15.82
2023-05-25T03:53:08.796Z,17.30
2023-05-25T03:55:35.908Z,19.95
2023-05-25T03:58:03.055Z,19.35
2023-05-25T04:00:30.142Z,22.00
2023-05-25T04:02:57.571Z,17.48
2023-05-25T04:05:24.818Z,18.52
2023-05-25T04:07:52.571Z,15.88
2023-05-25T04:10:19.670Z,19.50
2023-05-25T04:12:46.983Z,19.70
2023-05-25T04:15:14.587Z,19.65
2023-05-25T04:17:41.696Z,17.67
2023-05-25T04:20:09.930Z,11.40
2023-05-25T04:22:39.265Z,13.95
2023-05-25T04:25:07.808Z,17.95
2023-05-25T04:27:35.145Z,21.15
2023-05-25T04:30:02.866Z,18.48
2023-05-25T04:32:32.841Z,15.90
2023-05-25T04:34:59.952Z,18.50
2023-05-25T04:37:27.741Z,21.08
2023-05-25T04:39:54.965Z,17.15
2023-05-25T04:42:24.300Z,13.80
2023-05-25T04:44:59.198Z,16.00
2023-05-25T04:47:26.372Z,15.77
2023-05-25T04:49:53.797Z,14.88
2023-05-25T04:52:20.899Z,15.88
2023-05-25T04:54:48.634Z,14.02
2023-05-25T04:57:15.767Z,16.13
2023-05-25T04:59:42.887Z,11.60
2023-05-25T05:02:09.968Z,11.70
2023-05-25T05:04:37.804Z,12.90
2023-05-25T05:07:05.135Z,13.15
2023-05-25T05:09:32.306Z,14.40
2023-05-25T05:11:59.385Z,11.95
2023-05-25T05:14:28.094Z,17.40
2023-05-25T05:16:55.331Z,15.02
2023-05-25T05:19:23.181Z,15.10
2023-05-25T05:21:50.349Z,18.35
2023-05-25T05:24:17.473Z,12.98
2023-05-25T05:26:57.469Z,14.00
2023-05-25T05:29:27.114Z,13.88
2023-05-25T05:31:55.552Z,12.50
2023-05-25T05:34:22.746Z,17.50
2023-05-25T05:36:57.184Z,13.30
2023-05-25T05:39:25.758Z,12.65
2023-05-25T05:41:53.033Z,13.40
2023-05-25T05:44:25.217Z,13.65
2023-05-25T05:46:53.444Z,14.13
2023-05-25T05:49:20.649Z,14.07
2023-05-25T05:51:47.762Z,13.82
2023-05-25T05:54:14.890Z,13.93
2023-05-25T05:56:42.035Z,11.73
2023-05-25T05:59:09.217Z,15.63
2023-05-25T06:01:36.843Z,12.85
2023-05-25T06:04:06.385Z,15.65
2023-05-25T06:06:35.532Z,13.27
2023-05-25T06:09:04.624Z,13.93
2023-05-25T06:11:31.773Z,14.70
2023-05-25T06:13:58.891Z,12.70
2023-05-25T06:16:26.078Z,12.07
2023-05-25T06:18:53.206Z,11.00
2023-05-25T06:21:20.341Z,18.67
2023-05-25T06:23:48.393Z,15.75
2023-05-25T06:26:15.578Z,18.17
2023-05-25T06:28:42.868Z,12.13
2023-05-25T06:31:10.044Z,15.57
2023-05-25T06:33:37.128Z,15.68
2023-05-25T06:36:04.973Z,16.35
2023-05-25T06:38:32.456Z,18.98
2023-05-25T06:41:03.500Z,22.23
2023-05-25T06:43:32.370Z,19.27
2023-05-25T06:45:59.867Z,13.00
2023-05-25T06:48:27.018Z,11.63
2023-05-25T06:50:54.477Z,16.90
2023-05-25T06:53:21.975Z,16.90
2023-05-25T06:55:49.533Z,17.42
2023-05-25T06:58:16.670Z,16.88
2023-05-25T07:00:44.783Z,17.42
2023-05-25T07:03:13.190Z,16.23
2023-05-25T07:05:40.278Z,16.05
2023-05-25T07:08:07.532Z,15.00
2023-05-25T07:10:34.765Z,10.35
2023-05-25T07:13:01.960Z,13.93
2023-05-25T07:15:29.076Z,13.98
2023-05-25T07:17:57.534Z,14.73
2023-05-25T07:20:25.254Z,15.40
2023-05-25T07:22:53.568Z,14.10
2023-05-25T07:25:21.508Z,13.80
2023-05-25T07:27:55.442Z,13.25
2023-05-25T07:30:22.721Z,16.52
2023-05-25T07:32:49.903Z,9.40
2023-05-25T07:35:17.137Z,15.05
2023-05-25T07:37:44.264Z,18.63
2023-05-25T07:40:11.836Z,17.33
2023-05-25T07:42:39.011Z,16.02
2023-05-25T07:45:06.911Z,14.57
2023-05-25T07:47:34.100Z,14.32
2023-05-25T07:50:01.403Z,16.67
2023-05-25T07:52:28.538Z,15.90
2023-05-25T07:54:55.711Z,20.75
2023-05-25T07:57:22.907Z,14.88
2023-05-25T07:59:49.941Z,15.77
2023-05-25T08:02:17.178Z,16.23
2023-05-25T08:04:44.426Z,14.38
2023-05-25T08:07:11.663Z,13.25
2023-05-25T08:09:38.935Z,12.40
2023-05-25T08:12:27.310Z,15.63
2023-05-25T08:14:54.450Z,12.90
2023-05-25T08:17:22.232Z,15.27
2023-05-25T08:19:49.406Z,16.52
2023-05-25T08:22:16.704Z,13.13
2023-05-25T08:24:43.843Z,15.93
2023-05-25T08:27:11.141Z,17.08
2023-05-25T08:29:38.253Z,17.77
2023-05-25T08:32:05.696Z,10.95
2023-05-25T08:34:32.868Z,14.75
2023-05-25T08:37:00.150Z,17.02
2023-05-25T08:39:27.679Z,11.80
2023-05-25T08:41:54.845Z,51.67
2023-05-25T08:44:22.366Z,18.42
2023-05-25T08:46:50.775Z,23.50
2023-05-25T08:49:18.439Z,15.05
2023-05-25T08:51:54.289Z,14.77
2023-05-25T08:54:34.565Z,11.68
2023-05-25T08:57:24.725Z,12.43
2023-05-25T09:00:11.676Z,12.60
2023-05-25T09:02:42.496Z,13.02
2023-05-25T09:05:09.976Z,12.05
2023-05-25T09:07:37.197Z,14.18
2023-05-25T09:10:05.084Z,14.60
2023-05-25T09:12:32.610Z,12.90
2023-05-25T09:15:00.189Z,12.65
2023-05-25T09:17:27.547Z,13.45
2023-05-25T09:19:55.588Z,15.48
2023-05-25T09:22:22.797Z,15.60
2023-05-25T09:24:50.110Z,12.25
2023-05-25T09:27:22.417Z,13.70
2023-05-25T09:29:51.652Z,11.00
2023-05-25T09:32:19.698Z,10.70
2023-05-25T09:34:47.926Z,7.70
2023-05-25T09:37:21.255Z,11.82
2023-05-25T09:39:48.594Z,9.30
2023-05-25T09:42:16.766Z,10.98
2023-05-25T09:44:44.204Z,8.32
2023-05-25T09:47:13.499Z,7.57
2023-05-25T09:49:42.056Z,8.82
2023-05-25T09:52:09.492Z,6.78
2023-05-25T09:54:38.456Z,8.35
2023-05-25T09:57:06.664Z,9.15
2023-05-25T09:59:33.801Z,8.18
2023-05-25T10:02:01.500Z,9.88
2023-05-25T10:04:28.720Z,8.65
2023-05-25T10:06:57.181Z,9.30
2023-05-25T10:09:26.090Z,8.93
2023-05-25T10:11:55.056Z,8.40
2023-05-25T10:14:30.051Z,8.48
2023-05-25T10:17:05.121Z,7.82
2023-05-25T10:19:42.915Z,8.93
2023-05-25T10:22:34.899Z,8.75
2023-05-25T10:25:36.140Z,8.68
2023-05-25T10:28:07.854Z,8.50
2023-05-25T10:30:37.246Z,10.05
2023-05-25T10:33:07.365Z,9.98
2023-05-25T10:35:50.766Z,8.48
2023-05-25T10:38:35.042Z,9.93
2023-05-25T10:41:09.312Z,9.68
2023-05-25T10:43:43.666Z,8.52
2023-05-25T10:46:12.810Z,6.80
2023-05-25T10:48:55.392Z,6.80
2023-05-25T10:51:38.453Z,9.38
2023-05-25T10:54:10.354Z,10.32
2023-05-25T10:56:38.914Z,8.88
2023-05-25T10:59:10.245Z,7.28
2023-05-25T11:01:51.594Z,12.20
2023-05-25T11:04:18.836Z,7.88
2023-05-25T11:06:48.997Z,6.63
2023-05-25T11:09:27.077Z,6.32
2023-05-25T11:11:56.347Z,6.80
2023-05-25T11:14:30.405Z,7.45
2023-05-25T11:17:15.700Z,9.70
2023-05-25T11:19:45.862Z,6.72
2023-05-25T11:22:31.077Z,10.23
2023-05-25T11:25:00.029Z,10.73
2023-05-25T11:27:32.779Z,8.60
2023-05-25T11:30:00.675Z,13.60
2023-05-25T11:32:28.779Z,8.18
2023-05-25T11:34:58.545Z,5.82
2023-05-25T11:37:31.819Z,7.07
2023-05-25T11:39:59.554Z,6.50
2023-05-25T11:42:27.945Z,10.88
2023-05-25T11:44:55.691Z,8.07
2023-05-25T11:47:25.352Z,6.57
2023-05-25T11:49:55.835Z,7.35
2023-05-25T11:52:24.024Z,30.58
2023-05-25T11:54:53.395Z,7.97
2023-05-25T11:57:24.993Z,10.13
2023-05-25T11:59:58.002Z,7.32
2023-05-25T12:02:25.225Z,7.47
2023-05-25T12:05:01.590Z,8.02
2023-05-25T12:07:30.019Z,6.20
2023-05-25T12:10:07.281Z,7.28
2023-05-25T12:12:41.967Z,7.07
2023-05-25T12:15:12.272Z,7.95
2023-05-25T12:17:43.156Z,8.18
2023-05-25T12:20:15.652Z,7.95
2023-05-25T12:22:43.725Z,6.00
2023-05-25T12:25:12.639Z,5.28
2023-05-25T12:27:44.010Z,6.28
2023-05-25T12:30:12.277Z,7.93
2023-05-25T12:33:01.847Z,9.20
2023-05-25T12:35:31.608Z,5.75
2023-05-25T12:38:22.148Z,8.27
2023-05-25T12:41:06.208Z,6.53
2023-05-25T12:43:40.429Z,6.60
2023-05-25T12:46:07.592Z,6.43
2023-05-25T12:48:34.938Z,5.40
2023-05-25T12:51:02.277Z,7.93
2023-05-25T12:53:31.368Z,6.72
2023-05-25T12:56:03.389Z,5.90
2023-05-25T12:58:30.590Z,5.53
2023-05-25T13:00:57.786Z,5.53
2023-05-25T13:03:25.009Z,5.80
2023-05-25T13:06:00.054Z,7.20
2023-05-25T13:08:27.255Z,7.35
2023-05-25T13:10:54.330Z,5.80
2023-05-25T13:13:21.580Z,5.40
2023-05-25T13:15:48.839Z,6.10
2023-05-25T13:18:15.918Z,6.35
2023-05-25T13:20:43.619Z,5.13
2023-05-25T13:23:11.866Z,7.45
2023-05-25T13:25:39.668Z,5.97
2023-05-25T13:28:07.220Z,6.90
2023-05-25T13:30:34.409Z,7.72
2023-05-25T13:33:01.547Z,5.88
2023-05-25T13:35:42.258Z,5.85
2023-05-25T13:38:10.794Z,11.80
2023-05-25T13:40:37.985Z,6.40
2023-05-25T13:43:05.219Z,5.15
2023-05-25T13:45:32.355Z,5.22
2023-05-25T13:47:59.724Z,6.53
2023-05-25T13:50:27.288Z,6.20
2023-05-25T13:52:54.558Z,7.55
2023-05-25T13:55:22.984Z,6.72
2023-05-25T13:57:50.212Z,5.18
2023-05-25T14:00:17.700Z,7.85
2023-05-25T14:02:45.113Z,6.40
2023-05-25T14:05:12.363Z,5.82
2023-05-25T14:07:39.981Z,8.00
2023-05-25T14:10:09.695Z,5.53
2023-05-25T14:12:37.324Z,6.05
2023-05-25T14:15:05.194Z,6.85
2023-05-25T14:17:32.519Z,8.48
2023-05-25T14:20:00.770Z,8.23
2023-05-25T14:22:28.143Z,7.57
2023-05-25T14:24:55.290Z,7.70
2023-05-25T14:27:22.577Z,8.15
2023-05-25T14:29:51.354Z,10.13
2023-05-25T14:32:19.535Z,6.63
2023-05-25T14:34:46.653Z,9.38
2023-05-25T14:37:13.800Z,10.15
2023-05-25T14:39:40.973Z,6.00
2023-05-25T14:42:08.298Z,7.63
2023-05-25T14:44:35.419Z,7.20
2023-05-25T14:47:03.002Z,8.60
2023-05-25T14:49:30.370Z,7.22
2023-05-25T14:51:57.440Z,10.00
2023-05-25T14:54:24.582Z,5.85
2023-05-25T14:56:52.001Z,10.82
2023-05-25T14:59:19.185Z,9.68
2023-05-25T15:01:46.961Z,6.32
2023-05-25T15:04:14.393Z,6.00
2023-05-25T15:06:41.709Z,7.68
2023-05-25T15:09:08.816Z,7.75
2023-05-25T15:11:36.044Z,5.90
2023-05-25T15:14:03.163Z,8.40
2023-05-25T15:16:30.307Z,10.10
2023-05-25T15:18:57.370Z,7.32
2023-05-25T15:21:25.742Z,6.50
2023-05-25T15:23:52.988Z,7.72
2023-05-25T15:26:20.090Z,9.80
2023-05-25T15:28:47.322Z,7.30
2023-05-25T15:31:14.459Z,8.48
2023-05-25T15:33:50.275Z,7.18
2023-05-25T15:36:19.351Z,8.50
2023-05-25T15:38:49.642Z,9.57
2023-05-25T15:41:17.777Z,9.18
2023-05-25T15:44:01.208Z,12.50
2023-05-25T15:46:29.003Z,8.48
2023-05-25T15:48:56.569Z,10.43
2023-05-25T15:51:23.688Z,8.55
2023-05-25T15:53:50.960Z,9.18
2023-05-25T15:56:18.104Z,13.13
2023-05-25T15:58:49.010Z,7.97
2023-05-25T16:01:16.221Z,12.93
2023-05-25T16:03:43.485Z,9.45
2023-05-25T16:06:11.323Z,8.15
2023-05-25T16:08:38.594Z,10.82
2023-05-25T16:11:05.995Z,9.18
2023-05-25T16:13:33.108Z,9.82
2023-05-25T16:16:00.303Z,10.50
2023-05-25T16:18:27.519Z,7.32
2023-05-25T16:20:58.121Z,10.18
2023-05-25T16:23:25.717Z,8.00
2023-05-25T16:25:52.993Z,9.88
2023-05-25T16:28:20.090Z,7.32
2023-05-25T16:30:47.502Z,8.65
2023-05-25T16:33:14.825Z,8.32
2023-05-25T16:35:42.182Z,12.30
2023-05-25T16:38:10.773Z,12.00
2023-05-25T16:40:38.008Z,7.32
2023-05-25T16:43:05.176Z,12.20
2023-05-25T16:45:32.314Z,8.02
2023-05-25T16:47:59.508Z,7.28
2023-05-25T16:50:26.708Z,9.43
2023-05-25T16:52:53.817Z,8.68
2023-05-25T16:55:21.543Z,6.47
2023-05-25T16:57:48.702Z,7.28
2023-05-25T17:00:16.353Z,8.18
2023-05-25T17:02:43.551Z,9.35
2023-05-25T17:05:11.151Z,7.65
2023-05-25T17:07:39.581Z,9.18
2023-05-25T17:10:07.868Z,8.40
2023-05-25T17:12:37.365Z,9.48
2023-05-25T17:15:05.173Z,8.10
2023-05-25T17:17:32.371Z,9.10
2023-05-25T17:19:59.591Z,7.07
2023-05-25T17:22:26.749Z,9.90
2023-05-25T17:24:53.900Z,8.40
2023-05-25T17:27:20.991Z,6.82
2023-05-25T17:29:48.088Z,7.82
2023-05-25T17:32:15.341Z,8.70
2023-05-25T17:34:42.564Z,10.02
2023-05-25T17:37:09.669Z,11.35
2023-05-25T17:39:36.898Z,9.88
2023-05-25T17:42:04.172Z,7.45
2023-05-25T17:44:31.397Z,9.07
2023-05-25T17:46:58.577Z,8.15
2023-05-25T17:49:25.792Z,7.78
2023-05-25T17:51:53.072Z,8.07
2023-05-25T17:54:26.045Z,9.80
2023-05-25T17:56:53.700Z,8.20
2023-05-25T17:59:20.918Z,8.80
2023-05-25T18:01:48.151Z,9.82
2023-05-25T18:04:15.614Z,6.70
2023-05-25T18:06:43.085Z,9.55
2023-05-25T18:09:10.211Z,9.63
2023-05-25T18:11:37.319Z,8.60
2023-05-25T18:14:05.405Z,11.30
2023-05-25T18:16:32.912Z,11.82
2023-05-25T18:19:00.135Z,10.07
2023-05-25T18:21:27.281Z,10.18
2023-05-25T18:23:54.459Z,9.50
2023-05-25T18:26:22.133Z,7.05
2023-05-25T18:28:49.238Z,6.47
2023-05-25T18:31:16.461Z,9.15
2023-05-25T18:33:43.678Z,7.00
2023-05-25T18:36:10.884Z,13.95
2023-05-25T18:38:38.059Z,9.88
2023-05-25T18:41:05.365Z,11.40
2023-05-25T18:43:32.594Z,8.93
2023-05-25T18:45:59.737Z,8.43
2023-05-25T18:48:27.215Z,8.32
2023-05-25T18:50:54.605Z,10.57
2023-05-25T18:53:21.806Z,9.73
2023-05-25T18:55:48.926Z,9.48
2023-05-25T18:58:16.257Z,9.85
2023-05-25T19:00:43.380Z,10.52
2023-05-25T19:03:10.953Z,9.55
2023-05-25T19:05:38.101Z,8.10
2023-05-25T19:08:05.237Z,8.55
2023-05-25T19:10:32.380Z,7.63
2023-05-25T19:12:59.606Z,8.40
2023-05-25T19:15:27.384Z,9.70
2023-05-25T19:17:54.631Z,10.57
2023-05-25T19:20:22.000Z,8.93
2023-05-25T19:22:49.223Z,10.05
2023-05-25T19:25:16.444Z,11.25
2023-05-25T19:27:43.571Z,13.63
2023-05-25T19:30:11.058Z,11.00
2023-05-25T19:32:38.178Z,7.63
2023-05-25T19:35:05.761Z,11.40
2023-05-25T19:37:32.927Z,9.90
2023-05-25T19:40:00.014Z,9.73
2023-05-25T19:42:27.110Z,9.85
2023-05-25T19:44:54.325Z,7.95
2023-05-25T19:47:22.261Z,12.75
2023-05-25T19:49:49.413Z,8.82
2023-05-25T19:52:18.114Z,9.57
2023-05-25T19:54:45.543Z,8.90
2023-05-25T19:57:12.749Z,10.02
2023-05-25T19:59:39.978Z,9.80
2023-05-25T20:02:07.256Z,9.02
2023-05-25T20:04:34.462Z,11.68
2023-05-25T20:07:01.670Z,10.38
2023-05-25T20:09:31.756Z,9.90
2023-05-25T20:11:59.826Z,11.68
2023-05-25T20:14:27.266Z,8.82
2023-05-25T20:16:57.076Z,13.50
2023-05-25T20:19:24.245Z,12.27
2023-05-25T20:21:51.771Z,11.68
2023-05-25T20:24:19.044Z,12.40
2023-05-25T20:26:46.316Z,10.80
2023-05-25T20:29:13.538Z,11.10
2023-05-25T20:31:40.954Z,11.40
2023-05-25T20:34:08.070Z,9.80
2023-05-25T20:36:35.198Z,11.07
2023-05-25T20:39:03.416Z,11.23
2023-05-25T20:41:30.799Z,10.00
2023-05-25T20:43:58.100Z,9.70
2023-05-25T20:46:26.338Z,11.18
2023-05-25T20:48:53.707Z,10.68
2023-05-25T20:51:22.217Z,10.82
2023-05-25T20:53:49.356Z,12.23
2023-05-25T20:56:16.553Z,12.15
2023-05-25T20:58:44.310Z,15.20
2023-05-25T21:01:11.655Z,11.23
2023-05-25T21:03:40.182Z,10.18
2023-05-25T21:06:07.502Z,11.77
2023-05-25T21:08:35.240Z,11.43
2023-05-25T21:11:02.651Z,9.93
2023-05-25T21:13:29.890Z,10.00
2023-05-25T21:15:57.032Z,11.35
2023-05-25T21:18:24.292Z,9.13
2023-05-25T21:20:51.598Z,18.92
2023-05-25T21:23:18.712Z,13.20
2023-05-25T21:25:46.318Z,11.15
2023-05-25T21:28:13.737Z,11.07
2023-05-25T21:30:40.882Z,11.18
2023-05-25T21:33:08.127Z,9.60
2023-05-25T21:35:35.401Z,10.25
2023-05-25T21:38:02.733Z,11.35
2023-05-25T21:40:29.889Z,11.30
2023-05-25T21:42:57.196Z,12.20
2023-05-25T21:45:24.526Z,12.02
2023-05-25T21:47:51.939Z,12.02
2023-05-25T21:50:19.389Z,11.20
2023-05-25T21:52:46.989Z,10.88
2023-05-25T21:55:14.325Z,13.20
2023-05-25T21:57:41.618Z,10.07
2023-05-25T22:00:12.841Z,12.05
2023-05-25T22:02:40.866Z,13.88
2023-05-25T22:05:08.387Z,11.60
2023-05-25T22:07:35.571Z,12.10
2023-05-25T22:10:02.956Z,14.50
2023-05-25T22:12:30.295Z,13.07
2023-05-25T22:14:57.434Z,10.52
2023-05-25T22:17:24.758Z,10.77
2023-05-25T22:20:03.282Z,11.77
2023-05-25T22:22:34.287Z,11.68
2023-05-25T22:25:01.471Z,12.73
2023-05-25T22:27:28.635Z,11.05
2023-05-25T22:29:56.080Z,13.73
2023-05-25T22:32:23.503Z,15.98
2023-05-25T22:34:50.830Z,11.43
2023-05-25T22:37:18.086Z,13.02
2023-05-25T22:39:45.527Z,13.50
2023-05-25T22:42:12.692Z,13.95
2023-05-25T22:44:39.865Z,12.25
2023-05-25T22:47:07.226Z,11.30
2023-05-25T22:49:43.776Z,20.45
2023-05-25T22:52:12.087Z,17.20
2023-05-25T22:54:39.979Z,12.80
2023-05-25T22:57:08.935Z,12.00
2023-05-25T22:59:36.459Z,14.52
2023-05-25T23:02:03.957Z,13.15
2023-05-25T23:04:31.276Z,12.68
2023-05-25T23:06:58.373Z,10.40
2023-05-25T23:09:25.579Z,11.65
2023-05-25T23:11:52.799Z,10.82
2023-05-25T23:14:21.132Z,17.17
2023-05-25T23:16:50.842Z,12.00
2023-05-25T23:19:18.264Z,14.98
2023-05-25T23:21:45.635Z,11.73
2023-05-25T23:24:12.715Z,14.77
2023-05-25T23:26:39.883Z,11.38
2023-05-25T23:29:06.994Z,13.05
2023-05-25T23:31:34.354Z,15.25
2023-05-25T23:34:01.534Z,16.58
2023-05-25T23:36:28.766Z,14.63
2023-05-25T23:38:56.012Z,14.23
2023-05-25T23:41:23.349Z,13.90
2023-05-25T23:43:50.519Z,12.80
2023-05-25T23:46:17.761Z,15.07
2023-05-25T23:48:47.311Z,11.57
2023-05-25T23:51:14.430Z,15.27
2023-05-25T23:53:41.625Z,15.52
2023-05-25T23:56:08.956Z,13.10
2023-05-25T23:58:36.134Z,15.80
